createdAt,value
2019-03-10T00:00:50.513Z,0.143
2019-03-10T00:02:50.767Z,0.137
2019-03-10T00:04:50.200Z,0.148
2019-03-10T00:06:50.478Z,0.131
2019-03-10T00:08:50.734Z,0.165
2019-03-10T00:10:49.875Z,0.114
2019-03-10T00:12:50.061Z,0.143
2019-03-10T00:14:50.225Z,0.165
2019-03-10T00:16:50.538Z,0.200
2019-03-10T00:18:50.733Z,0.148
2019-03-10T00:20:49.883Z,0.125
2019-03-10T00:22:50.091Z,0.148
2019-03-10T00:24:50.428Z,0.086
2019-03-10T00:26:49.872Z,0.165
2019-03-10T00:28:50.125Z,0.211
2019-03-10T00:30:50.423Z,0.160
2019-03-10T00:32:50.787Z,0.148
2019-03-10T00:34:50.258Z,0.148
2019-03-10T00:36:50.676Z,0.143
2019-03-10T00:38:50.238Z,0.171
2019-03-10T00:40:50.553Z,0.182
2019-03-10T00:42:50.587Z,0.188
2019-03-10T00:44:50.715Z,0.182
2019-03-10T00:46:50.531Z,0.160
2019-03-10T00:48:49.851Z,0.160
2019-03-10T00:50:50.253Z,0.120
2019-03-10T00:52:50.553Z,0.137
2019-03-10T00:54:49.807Z,0.160
2019-03-10T00:56:50.042Z,0.125
2019-03-10T00:58:50.214Z,0.165
2019-03-10T01:00:50.483Z,0.177
2019-03-10T01:02:50.729Z,0.177
2019-03-10T01:04:50.091Z,0.211
2019-03-10T01:06:50.320Z,0.131
2019-03-10T01:08:50.506Z,0.137
2019-03-10T01:10:50.616Z,0.137
2019-03-10T01:12:49.797Z,0.171
2019-03-10T01:14:49.923Z,0.103
2019-03-10T01:16:50.138Z,0.148
2019-03-10T01:18:50.331Z,0.182
2019-03-10T01:20:50.470Z,0.205
2019-03-10T01:22:50.654Z,0.131
2019-03-10T01:24:50.817Z,0.182
2019-03-10T01:26:50.139Z,0.182
2019-03-10T01:28:50.260Z,0.217
2019-03-10T01:30:50.519Z,0.131
2019-03-10T01:32:50.712Z,0.200
2019-03-10T01:34:50.084Z,0.148
2019-03-10T01:36:50.308Z,0.160
2019-03-10T01:38:50.484Z,0.177
2019-03-10T01:40:50.758Z,0.143
2019-03-10T01:42:50.053Z,0.177
2019-03-10T01:44:50.240Z,0.114
2019-03-10T01:46:50.613Z,0.200
2019-03-10T01:48:49.819Z,0.160
2019-03-10T01:50:49.977Z,0.143
2019-03-10T01:52:50.139Z,0.154
2019-03-10T01:54:50.312Z,0.177
2019-03-10T01:56:50.693Z,0.143
2019-03-10T01:58:49.797Z,0.131
2019-03-10T02:00:49.909Z,0.171
2019-03-10T02:02:50.061Z,0.165
2019-03-10T02:04:50.510Z,0.160
2019-03-10T02:06:49.822Z,0.182
2019-03-10T02:08:49.980Z,0.160
2019-03-10T02:10:50.059Z,0.182
2019-03-10T02:12:50.348Z,0.182
2019-03-10T02:14:50.616Z,0.137
2019-03-10T02:16:49.899Z,0.205
2019-03-10T02:18:50.059Z,0.131
2019-03-10T02:20:50.239Z,0.160
2019-03-10T02:22:50.408Z,0.143
2019-03-10T02:24:50.584Z,0.194
2019-03-10T02:26:49.956Z,0.143
2019-03-10T02:28:50.117Z,0.131
2019-03-10T02:30:50.275Z,0.103
2019-03-10T02:32:50.655Z,0.125
2019-03-10T02:34:50.175Z,0.137
2019-03-10T02:36:50.365Z,0.165
2019-03-10T02:38:50.577Z,0.160
2019-03-10T02:40:50.694Z,0.188
2019-03-10T02:42:49.867Z,0.108
2019-03-10T02:44:50.013Z,0.148
2019-03-10T02:46:50.209Z,0.137
2019-03-10T02:48:50.461Z,0.120
2019-03-10T02:50:50.742Z,0.188
2019-03-10T02:52:49.917Z,0.154
2019-03-10T02:54:50.170Z,0.177
2019-03-10T02:56:50.480Z,0.143
2019-03-10T02:58:50.690Z,0.165
2019-03-10T03:00:49.840Z,0.171
2019-03-10T03:02:49.964Z,0.143
2019-03-10T03:04:50.454Z,0.154
2019-03-10T03:06:49.930Z,0.177
2019-03-10T03:08:49.964Z,0.154
2019-03-10T03:10:50.147Z,0.171
2019-03-10T03:12:50.362Z,0.143
2019-03-10T03:14:50.486Z,0.125
2019-03-10T03:16:53.355Z,0.143
2019-03-10T03:18:50.636Z,0.188
2019-03-10T03:20:50.794Z,0.182
2019-03-10T03:22:49.982Z,0.148
2019-03-10T03:24:50.201Z,0.439
2019-03-10T03:26:50.643Z,0.519
2019-03-10T03:28:50.765Z,0.581
2019-03-10T03:30:49.956Z,0.559
2019-03-10T03:32:50.324Z,0.541
2019-03-10T03:34:49.900Z,0.581
2019-03-10T03:36:50.264Z,0.519
2019-03-10T03:38:50.390Z,0.707
2019-03-10T03:40:50.598Z,0.513
2019-03-10T03:42:50.752Z,0.616
2019-03-10T03:44:49.926Z,89.969
2019-03-10T03:46:50.238Z,747.088
2019-03-10T03:48:50.460Z,747.088
2019-03-10T03:50:50.608Z,747.088
2019-03-10T03:52:49.853Z,747.088
2019-03-10T03:54:50.179Z,747.088
2019-03-10T03:56:50.459Z,747.088
2019-03-10T03:58:50.695Z,747.088
2019-03-10T04:00:49.877Z,747.088
2019-03-10T04:02:50.200Z,747.088
2019-03-10T04:04:50.616Z,747.088
2019-03-10T04:06:49.942Z,747.088
2019-03-10T04:08:50.138Z,747.088
2019-03-10T04:10:50.254Z,747.088
2019-03-10T04:12:50.384Z,747.088
2019-03-10T04:14:50.634Z,747.088
2019-03-10T04:16:49.863Z,747.088
2019-03-10T04:18:49.967Z,747.088
2019-03-10T04:20:50.088Z,747.088
2019-03-10T04:22:50.268Z,747.088
2019-03-10T04:24:50.444Z,747.088
2019-03-10T04:26:50.614Z,747.088
2019-03-10T04:28:50.768Z,747.088
2019-03-10T04:30:49.849Z,747.088
2019-03-10T04:32:49.983Z,747.088
2019-03-10T04:34:50.549Z,747.088
2019-03-10T04:36:50.792Z,747.088
2019-03-10T04:38:49.868Z,747.088
2019-03-10T04:40:49.957Z,747.088
2019-03-10T04:42:50.190Z,747.088
2019-03-10T04:44:50.256Z,747.088
2019-03-10T04:46:50.442Z,747.088
2019-03-10T04:48:50.576Z,747.088
2019-03-10T11:10:50.109Z,0.239
2019-03-10T11:12:50.548Z,0.433
2019-03-10T11:14:50.709Z,0.433
2019-03-10T11:16:50.422Z,0.200
2019-03-10T11:18:50.545Z,0.165
2019-03-10T11:20:50.722Z,0.137
2019-03-10T11:22:49.922Z,0.211
2019-03-10T11:24:50.571Z,0.143
2019-03-10T11:26:50.665Z,0.120
2019-03-10T11:28:49.889Z,0.154
2019-03-10T11:30:49.897Z,0.143
2019-03-10T11:32:49.982Z,0.182
2019-03-10T11:34:50.428Z,0.160
2019-03-10T11:36:51.193Z,0.177
2019-03-10T11:38:50.297Z,0.165
2019-03-10T11:40:50.481Z,0.137
2019-03-10T11:42:50.564Z,0.171
2019-03-10T11:44:50.746Z,0.131
2019-03-10T11:46:49.947Z,0.114
2019-03-10T11:48:50.111Z,0.074
2019-03-10T11:50:50.224Z,0.114
2019-03-10T11:52:50.360Z,0.131
2019-03-10T11:54:50.618Z,0.234
2019-03-10T11:56:49.876Z,0.165
2019-03-10T11:58:50.135Z,0.154
2019-03-10T12:00:50.273Z,0.131
2019-03-10T12:02:49.974Z,0.131
2019-03-10T12:04:50.343Z,0.125
2019-03-10T12:06:50.564Z,0.205
2019-03-10T12:08:49.841Z,0.160
2019-03-10T12:10:50.428Z,0.160
2019-03-10T12:12:50.635Z,0.125
2019-03-10T12:14:50.720Z,0.114
2019-03-10T12:16:49.972Z,0.097
2019-03-10T12:18:50.106Z,0.165
2019-03-10T12:20:50.193Z,0.091
2019-03-10T12:22:50.339Z,0.120
2019-03-10T12:24:50.466Z,0.137
2019-03-10T12:26:50.724Z,0.154
2019-03-10T12:28:49.999Z,0.177
2019-03-10T12:30:50.148Z,0.137
2019-03-10T12:32:50.256Z,0.160
2019-03-10T12:34:49.895Z,0.125
2019-03-10T12:36:50.765Z,0.125
2019-03-10T12:38:50.142Z,0.171
2019-03-10T12:40:50.337Z,0.125
2019-03-10T12:42:50.435Z,0.143
2019-03-10T12:44:50.575Z,0.125
2019-03-10T12:46:50.797Z,0.137
2019-03-10T12:48:49.972Z,0.137
2019-03-10T12:50:50.143Z,0.160
2019-03-10T12:52:50.245Z,0.188
2019-03-10T12:54:50.441Z,0.154
2019-03-10T12:56:50.694Z,0.108
2019-03-10T12:58:49.816Z,0.074
2019-03-10T13:00:49.987Z,0.211
2019-03-10T13:02:50.092Z,0.154
2019-03-10T13:04:50.450Z,0.160
2019-03-10T13:06:50.653Z,0.148
2019-03-10T13:08:50.726Z,0.188
2019-03-10T13:10:49.949Z,0.205
2019-03-10T13:12:50.098Z,0.200
2019-03-10T13:15:00.696Z,0.137
2019-03-10T13:16:49.842Z,0.228
2019-03-10T13:18:49.949Z,0.137
2019-03-10T13:20:50.107Z,0.148
2019-03-10T13:22:50.242Z,0.194
2019-03-10T13:24:50.399Z,0.194
2019-03-10T13:26:50.684Z,0.194
2019-03-10T13:28:49.819Z,0.160
2019-03-10T13:30:49.993Z,0.165
2019-03-10T13:32:50.253Z,0.171
2019-03-10T13:34:50.593Z,0.165
2019-03-10T13:36:50.737Z,0.154
2019-03-10T13:38:49.866Z,0.148
2019-03-10T13:40:49.997Z,0.131
2019-03-10T13:42:50.125Z,0.171
2019-03-10T13:44:50.179Z,0.114
2019-03-10T13:46:50.386Z,0.165
2019-03-10T13:48:50.495Z,0.194
2019-03-10T13:50:50.586Z,0.120
2019-03-10T13:52:50.756Z,0.120
2019-03-10T13:54:49.846Z,0.171
2019-03-10T13:56:50.005Z,0.200
2019-03-10T13:58:50.069Z,0.171
2019-03-10T14:00:50.218Z,0.148
2019-03-10T14:02:50.322Z,0.188
2019-03-10T14:04:50.683Z,0.194
2019-03-10T14:06:50.080Z,0.131
2019-03-10T14:08:50.199Z,0.131
2019-03-10T14:10:50.365Z,0.114
2019-03-10T14:12:50.555Z,0.137
2019-03-10T14:14:50.657Z,0.137
2019-03-10T14:16:49.898Z,0.120
2019-03-10T14:18:50.079Z,0.137
2019-03-10T14:20:50.217Z,0.165
2019-03-10T14:22:50.351Z,0.160
2019-03-10T14:24:50.407Z,0.154
2019-03-10T14:26:50.629Z,0.188
2019-03-10T14:28:50.769Z,0.143
2019-03-10T14:30:49.961Z,0.200
2019-03-10T14:32:50.123Z,0.154
2019-03-10T14:34:50.379Z,0.171
2019-03-10T14:36:50.519Z,0.211
2019-03-10T14:38:50.576Z,0.217
2019-03-10T14:40:50.649Z,0.148
2019-03-10T14:42:50.801Z,0.148
2019-03-10T14:44:49.890Z,0.148
2019-03-10T14:46:50.141Z,0.143
2019-03-10T14:48:50.261Z,0.165
2019-03-10T14:50:50.450Z,0.205
2019-03-10T14:52:50.605Z,0.154
2019-03-10T14:54:50.710Z,0.131
2019-03-10T14:56:49.836Z,0.120
2019-03-10T14:58:49.932Z,0.188
2019-03-10T15:00:50.178Z,0.137
2019-03-10T15:02:50.331Z,0.182
2019-03-10T15:04:49.859Z,0.171
2019-03-10T15:06:50.086Z,0.125
2019-03-10T15:08:50.165Z,0.154
2019-03-10T15:10:50.330Z,0.211
2019-03-10T15:12:50.477Z,0.165
2019-03-10T15:14:50.599Z,0.074
2019-03-10T15:16:50.786Z,0.154
2019-03-10T15:18:49.946Z,0.222
2019-03-10T15:20:50.094Z,0.194
2019-03-10T15:22:50.226Z,0.148
2019-03-10T15:24:50.331Z,0.137
2019-03-10T15:26:50.501Z,0.143
2019-03-10T15:28:51.017Z,0.188
2019-03-10T15:30:51.010Z,0.188
2019-03-10T15:32:50.175Z,0.177
2019-03-10T15:34:50.497Z,0.154
2019-03-10T15:36:50.640Z,0.131
2019-03-10T15:38:49.797Z,0.131
2019-03-10T15:40:49.902Z,0.165
2019-03-10T15:42:50.011Z,0.217
2019-03-10T15:44:50.119Z,0.154
2019-03-10T15:46:50.517Z,0.200
2019-03-10T15:48:50.621Z,0.148
2019-03-10T15:50:49.888Z,0.165
2019-03-10T15:52:50.044Z,0.222
2019-03-10T15:54:50.169Z,0.108
2019-03-10T15:56:50.390Z,0.114
2019-03-10T15:58:50.497Z,0.137
2019-03-10T16:00:50.567Z,0.137
2019-03-10T16:02:50.726Z,0.177
2019-03-10T16:04:50.213Z,0.160
2019-03-10T16:06:50.477Z,0.137
2019-03-10T16:08:50.642Z,0.137
2019-03-10T16:10:50.716Z,0.137
2019-03-10T16:12:50.157Z,0.154
2019-03-10T16:14:50.226Z,0.125
2019-03-10T16:16:50.452Z,0.137
2019-03-10T16:18:51.500Z,0.148
2019-03-10T16:20:50.612Z,0.148
2019-03-10T16:22:50.724Z,0.108
2019-03-10T16:24:49.894Z,0.120
2019-03-10T16:26:50.086Z,0.154
2019-03-10T16:28:50.188Z,0.114
2019-03-10T16:30:50.314Z,0.148
2019-03-10T16:32:50.386Z,0.160
2019-03-10T16:34:50.726Z,0.165
2019-03-10T16:36:50.081Z,0.177
2019-03-10T16:38:50.226Z,0.131
2019-03-10T16:40:50.376Z,0.103
2019-03-10T16:42:50.479Z,0.137
2019-03-10T16:44:50.597Z,0.097
2019-03-10T16:46:49.840Z,0.160
2019-03-10T16:48:49.947Z,0.137
2019-03-10T16:50:50.116Z,0.120
2019-03-10T16:52:50.228Z,0.143
2019-03-10T16:54:50.358Z,0.143
2019-03-10T16:56:50.626Z,0.143
2019-03-10T16:58:50.721Z,0.165
2019-03-10T17:00:49.932Z,0.125
2019-03-10T17:02:50.110Z,0.154
2019-03-10T17:04:50.358Z,0.148
2019-03-10T17:06:50.554Z,0.137
2019-03-10T17:08:50.711Z,0.165
2019-03-10T17:10:49.874Z,0.154
2019-03-10T17:12:50.018Z,0.177
2019-03-10T17:14:50.148Z,0.188
2019-03-10T17:16:50.353Z,0.125
2019-03-10T17:18:50.484Z,0.171
2019-03-10T17:20:50.705Z,0.097
2019-03-10T17:22:49.787Z,0.160
2019-03-10T17:24:49.982Z,0.148
2019-03-10T17:26:50.196Z,0.120
2019-03-10T17:28:50.421Z,0.148
2019-03-10T17:30:50.562Z,0.160
2019-03-10T17:32:50.636Z,0.165
2019-03-10T17:34:49.937Z,0.165
2019-03-10T17:36:50.156Z,0.131
2019-03-10T17:38:50.292Z,0.143
2019-03-10T17:40:50.431Z,0.137
2019-03-10T17:42:50.604Z,0.148
2019-03-10T17:44:50.750Z,0.171
2019-03-10T17:46:50.036Z,0.114
2019-03-10T17:48:50.166Z,0.131
2019-03-10T17:50:50.254Z,0.177
2019-03-10T17:52:50.336Z,0.148
2019-03-10T17:54:50.415Z,0.108
2019-03-10T17:56:50.557Z,0.120
2019-03-10T17:58:50.934Z,0.182
2019-03-10T18:00:50.225Z,0.131
2019-03-10T18:02:50.328Z,0.125
2019-03-10T18:04:50.678Z,0.091
2019-03-10T18:06:49.930Z,0.177
2019-03-10T18:08:50.052Z,0.143
2019-03-10T18:10:50.173Z,0.091
2019-03-10T18:12:50.325Z,0.165
2019-03-10T18:14:50.406Z,0.205
2019-03-10T18:16:50.544Z,0.131
2019-03-10T18:18:50.669Z,0.125
2019-03-10T18:20:50.760Z,0.125
2019-03-10T18:22:49.905Z,0.194
2019-03-10T18:24:49.989Z,0.148
2019-03-10T18:26:50.203Z,0.177
2019-03-10T18:28:50.409Z,0.154
2019-03-10T18:30:50.581Z,0.165
2019-03-10T18:32:50.784Z,0.114
2019-03-10T18:34:50.053Z,0.131
2019-03-10T18:36:50.322Z,0.154
2019-03-10T18:38:50.389Z,0.182
2019-03-10T18:40:50.524Z,0.171
2019-03-10T18:42:50.651Z,0.143
2019-03-10T18:44:50.764Z,0.205
2019-03-10T18:46:50.129Z,0.091
2019-03-10T18:48:50.320Z,0.131
2019-03-10T18:50:50.454Z,0.097
2019-03-10T18:52:50.610Z,0.137
2019-03-10T18:54:50.732Z,0.194
2019-03-10T18:56:49.896Z,0.137
2019-03-10T18:58:49.985Z,0.200
2019-03-10T19:00:50.105Z,0.148
2019-03-10T19:02:50.254Z,0.160
2019-03-10T19:04:50.736Z,0.148
2019-03-10T19:06:49.873Z,0.148
2019-03-10T19:08:50.042Z,0.120
2019-03-10T19:10:50.186Z,0.143
2019-03-10T19:12:50.288Z,0.177
2019-03-10T19:14:50.414Z,0.148
2019-03-10T19:16:50.602Z,0.137
2019-03-10T19:18:50.767Z,0.171
2019-03-10T19:20:49.827Z,0.160
2019-03-10T19:22:50.801Z,0.120
2019-03-10T19:24:50.414Z,0.194
2019-03-10T19:26:50.729Z,0.177
2019-03-10T19:28:49.855Z,0.182
2019-03-10T19:30:49.930Z,0.160
2019-03-10T19:32:50.159Z,0.114
2019-03-10T19:34:50.498Z,0.120
2019-03-10T19:36:58.025Z,0.160
2019-03-10T19:38:50.228Z,0.143
2019-03-10T19:40:50.411Z,0.154
2019-03-10T19:42:50.490Z,0.165
2019-03-10T19:44:50.680Z,0.091
2019-03-10T19:46:50.122Z,0.211
2019-03-10T19:48:50.311Z,0.148
2019-03-10T19:50:50.412Z,0.194
2019-03-10T19:52:50.531Z,0.154
2019-03-10T19:54:50.640Z,0.103
2019-03-10T19:56:49.984Z,0.125
2019-03-10T19:58:50.154Z,0.103
2019-03-10T20:00:50.306Z,0.205
2019-03-10T20:02:50.442Z,0.148
2019-03-10T20:04:49.987Z,0.143
2019-03-10T20:06:50.256Z,0.125
2019-03-10T20:08:50.387Z,0.217
2019-03-10T20:10:50.575Z,0.165
2019-03-10T20:12:50.783Z,0.200
2019-03-10T20:14:49.987Z,118.127
2019-03-10T20:16:50.267Z,0.125
2019-03-10T20:18:50.433Z,306.079
2019-03-10T20:20:50.610Z,495.267
2019-03-10T20:22:49.825Z,0.000
2019-03-10T20:24:49.953Z,0.000
2019-03-10T20:26:50.196Z,0.000
2019-03-10T20:28:50.301Z,0.000
2019-03-10T20:30:50.433Z,0.000
2019-03-10T20:32:50.595Z,0.000
2019-03-10T20:34:50.135Z,0.000
2019-03-10T20:36:52.703Z,0.000
2019-03-10T20:38:49.855Z,0.000
2019-03-10T20:40:49.976Z,0.000
2019-03-10T20:42:50.086Z,0.000
2019-03-10T20:44:50.229Z,0.000
2019-03-10T20:46:50.489Z,0.000
2019-03-10T20:48:50.595Z,0.000
2019-03-10T20:50:50.720Z,0.000
2019-03-10T20:52:50.030Z,0.211
2019-03-10T20:54:50.242Z,0.148
2019-03-10T20:56:50.539Z,0.114
2019-03-10T20:58:50.717Z,0.131
2019-03-10T21:00:49.904Z,0.125
2019-03-10T21:02:50.071Z,0.165
2019-03-10T21:04:50.497Z,0.165
2019-03-10T21:06:50.713Z,0.148
2019-03-10T21:08:49.892Z,0.165
2019-03-10T21:10:50.094Z,0.137
2019-03-10T21:12:50.349Z,0.171
2019-03-10T21:14:50.548Z,0.171
2019-03-10T21:16:50.771Z,0.148
2019-03-10T21:18:49.981Z,0.120
2019-03-10T21:20:50.213Z,0.177
2019-03-10T21:22:50.355Z,0.148
2019-03-10T21:24:50.524Z,0.148
2019-03-10T21:26:49.814Z,0.103
2019-03-10T21:28:49.979Z,0.148
2019-03-10T21:30:50.067Z,0.148
2019-03-10T21:32:50.277Z,0.131
2019-03-10T21:34:50.571Z,0.154
2019-03-10T21:36:49.927Z,0.182
2019-03-10T21:38:50.142Z,0.165
2019-03-10T21:40:50.328Z,0.194
2019-03-10T21:42:50.612Z,0.120
2019-03-10T21:44:50.764Z,0.160
2019-03-10T21:46:50.494Z,0.137
2019-03-10T21:48:50.717Z,0.165
2019-03-10T21:50:49.951Z,0.154
2019-03-10T21:52:50.201Z,0.154
2019-03-10T21:54:50.355Z,0.200
2019-03-10T21:56:50.581Z,0.137
2019-03-10T21:58:50.718Z,0.182
2019-03-10T22:00:49.863Z,0.137
2019-03-10T22:02:49.959Z,0.137
2019-03-10T22:04:50.330Z,0.143
2019-03-10T22:06:50.625Z,0.148
2019-03-10T22:08:50.735Z,0.171
2019-03-10T22:10:49.922Z,0.171
2019-03-10T22:12:50.159Z,0.165
2019-03-10T22:14:50.287Z,0.165
2019-03-10T22:16:50.469Z,0.165
2019-03-10T22:18:50.630Z,0.091
2019-03-10T22:20:50.707Z,0.217
2019-03-10T22:22:50.631Z,0.217
2019-03-10T22:24:50.752Z,0.103
2019-03-10T22:26:50.022Z,0.137
2019-03-10T22:28:50.796Z,0.188
2019-03-10T22:30:50.090Z,0.200
2019-03-10T22:32:50.220Z,0.165
2019-03-10T22:34:50.731Z,0.143
2019-03-10T22:36:50.011Z,0.143
2019-03-10T22:38:50.197Z,0.114
2019-03-10T22:40:50.381Z,0.143
2019-03-10T22:42:50.487Z,0.154
2019-03-10T22:44:50.720Z,0.217
2019-03-10T22:46:50.058Z,0.143
2019-03-10T22:48:50.192Z,0.137
2019-03-10T22:50:50.331Z,0.143
2019-03-10T22:52:50.446Z,0.131
2019-03-10T22:54:50.612Z,0.177
2019-03-10T22:56:49.871Z,0.188
2019-03-10T22:58:49.998Z,0.125
2019-03-10T23:00:50.153Z,0.143
2019-03-10T23:02:50.304Z,0.154
2019-03-10T23:04:50.751Z,0.154
2019-03-10T23:06:50.002Z,0.194
2019-03-10T23:08:50.098Z,0.165
2019-03-10T23:10:50.251Z,0.165
2019-03-10T23:12:50.359Z,0.188
2019-03-10T23:14:50.447Z,0.125
2019-03-10T23:16:52.922Z,0.182
2019-03-10T23:18:50.120Z,0.154
2019-03-10T23:20:50.237Z,0.154
2019-03-10T23:22:50.578Z,0.114
2019-03-10T23:24:50.764Z,0.188
2019-03-10T23:26:50.112Z,0.131
2019-03-10T23:28:50.247Z,0.171
2019-03-10T23:30:50.449Z,0.125
2019-03-10T23:32:50.686Z,0.188
2019-03-10T23:34:50.008Z,0.143
2019-03-10T23:36:50.506Z,0.108
2019-03-10T23:38:50.664Z,0.143
2019-03-10T23:40:50.747Z,0.148
2019-03-10T23:42:49.899Z,0.148
2019-03-10T23:44:50.074Z,0.137
2019-03-10T23:46:50.224Z,0.182
2019-03-10T23:48:50.430Z,0.165
2019-03-10T23:50:50.538Z,0.120
2019-03-10T23:52:50.612Z,0.120
2019-03-10T23:54:50.698Z,0.171
2019-03-10T23:56:49.870Z,0.114
2019-03-10T23:58:49.976Z,0.160
